createdAt,value
2023-03-05T00:01:25.271Z,4.20
2023-03-05T00:04:14.432Z,4.10
2023-03-05T00:07:00.864Z,4.20
2023-03-05T00:09:47.110Z,4.20
2023-03-05T00:12:33.562Z,4.30
2023-03-05T00:15:21.334Z,4.30
2023-03-05T00:18:07.806Z,4.30
2023-03-05T00:20:54.422Z,4.10
2023-03-05T00:23:40.793Z,4.30
2023-03-05T00:26:28.453Z,4.20
2023-03-05T00:29:18.703Z,4.20
2023-03-05T00:32:06.741Z,4.20
2023-03-05T00:34:53.128Z,4.10
2023-03-05T00:37:39.601Z,4.00
2023-03-05T00:40:25.980Z,4.00
2023-03-05T00:43:12.457Z,4.20
2023-03-05T00:45:59.025Z,4.00
2023-03-05T00:48:46.990Z,4.10
2023-03-05T00:51:33.839Z,4.00
2023-03-05T00:54:20.757Z,4.10
2023-03-05T00:57:07.199Z,4.20
2023-03-05T00:59:53.691Z,4.20
2023-03-05T01:02:39.964Z,4.30
2023-03-05T01:05:28.010Z,4.20
2023-03-05T01:08:15.434Z,4.10
2023-03-05T01:11:02.235Z,4.20
2023-03-05T01:13:49.075Z,4.00
2023-03-05T01:16:35.504Z,4.10
2023-03-05T01:19:21.976Z,4.20
2023-03-05T01:22:09.758Z,4.20
2023-03-05T01:24:56.341Z,4.20
2023-03-05T01:27:42.883Z,4.10
2023-03-05T01:30:29.449Z,4.20
2023-03-05T01:33:15.874Z,4.10
2023-03-05T01:36:02.276Z,4.10
2023-03-05T01:38:50.202Z,3.90
2023-03-05T01:41:37.033Z,4.00
2023-03-05T01:44:25.632Z,3.90
2023-03-05T01:47:12.480Z,3.90
2023-03-05T01:49:59.404Z,3.90
2023-03-05T01:52:53.927Z,3.80
2023-03-05T01:55:41.815Z,3.90
2023-03-05T01:58:28.636Z,3.80
2023-03-05T02:01:17.042Z,4.50
2023-03-05T02:04:04.197Z,3.90
2023-03-05T02:06:51.031Z,4.00
2023-03-05T02:09:39.835Z,4.00
2023-03-05T02:12:27.751Z,3.90
2023-03-05T02:15:14.518Z,4.00
2023-03-05T02:18:01.401Z,4.00
2023-03-05T02:20:51.674Z,4.10
2023-03-05T02:23:40.281Z,4.10
2023-03-05T02:26:27.059Z,4.10
2023-03-05T02:29:18.561Z,4.00
2023-03-05T02:32:05.644Z,4.00
2023-03-05T02:34:52.352Z,4.10
2023-03-05T02:37:38.772Z,3.90
2023-03-05T02:40:26.528Z,4.00
2023-03-05T02:43:13.573Z,4.00
2023-03-05T02:46:00.057Z,4.10
2023-03-05T02:48:47.063Z,4.00
2023-03-05T02:51:33.689Z,4.10
2023-03-05T02:54:20.660Z,4.00
2023-03-05T02:57:08.375Z,4.10
2023-03-05T02:59:54.921Z,3.90
2023-03-05T03:02:41.724Z,4.00
2023-03-05T03:05:28.127Z,4.00
2023-03-05T03:08:15.172Z,4.00
2023-03-05T03:11:07.168Z,4.00
2023-03-05T03:13:54.892Z,3.90
2023-03-05T03:16:41.532Z,4.10
2023-03-05T03:19:28.320Z,3.90
2023-03-05T03:22:17.061Z,3.90
2023-03-05T03:25:03.994Z,4.00
2023-03-05T03:27:50.621Z,4.10
2023-03-05T03:30:38.725Z,4.00
2023-03-05T03:33:25.282Z,4.00
2023-03-05T03:36:12.437Z,3.90
2023-03-05T03:38:58.954Z,4.10
2023-03-05T03:41:47.058Z,3.90
2023-03-05T03:44:33.691Z,3.90
2023-03-05T03:47:21.390Z,3.80
2023-03-05T03:50:08.741Z,3.90
2023-03-05T03:52:55.214Z,3.90
2023-03-05T03:55:42.701Z,3.90
2023-03-05T03:58:29.293Z,3.90
2023-03-05T04:01:15.940Z,3.90
2023-03-05T04:04:04.634Z,4.00
2023-03-05T04:06:51.347Z,3.90
2023-03-05T04:09:37.712Z,3.90
2023-03-05T04:12:24.304Z,3.90
2023-03-05T04:15:11.779Z,4.00
2023-03-05T04:17:58.343Z,3.80
2023-03-05T04:20:46.165Z,3.80
2023-03-05T04:23:33.361Z,3.80
2023-03-05T04:26:19.693Z,4.00
2023-03-05T04:29:06.152Z,3.90
2023-03-05T04:31:52.484Z,3.80
2023-03-05T04:34:39.452Z,3.80
2023-03-05T04:37:27.725Z,3.80
2023-03-05T04:40:14.657Z,3.90
2023-03-05T04:43:01.089Z,3.80
2023-03-05T04:45:47.741Z,3.90
2023-03-05T04:48:33.993Z,3.90
2023-03-05T04:51:20.331Z,4.00
2023-03-05T04:54:08.187Z,3.80
2023-03-05T04:56:55.023Z,3.80
2023-03-05T04:59:41.487Z,3.80
2023-03-05T05:02:28.029Z,3.90
2023-03-05T05:05:17.750Z,3.80
2023-03-05T05:08:04.955Z,3.90
2023-03-05T05:11:01.408Z,4.00
2023-03-05T05:13:47.842Z,3.90
2023-03-05T05:16:34.659Z,3.80
2023-03-05T05:19:21.621Z,3.80
2023-03-05T05:22:08.362Z,3.80
2023-03-05T05:24:54.822Z,3.80
2023-03-05T05:27:42.668Z,3.80
2023-03-05T05:30:29.342Z,3.80
2023-03-05T05:33:15.820Z,3.80
2023-03-05T05:36:03.834Z,3.80
2023-03-05T05:38:51.711Z,3.90
2023-03-05T05:41:38.237Z,3.80
2023-03-05T05:44:25.861Z,3.90
2023-03-05T05:47:12.850Z,3.90
2023-03-05T05:49:59.567Z,4.00
2023-03-05T05:52:46.006Z,4.00
2023-03-05T05:55:32.459Z,4.00
2023-03-05T05:58:19.066Z,3.90
2023-03-05T06:01:15.915Z,3.80
2023-03-05T06:04:02.880Z,3.90
2023-03-05T06:06:49.480Z,3.90
2023-03-05T06:09:36.891Z,3.70
2023-03-05T06:12:23.451Z,3.80
2023-03-05T06:15:10.708Z,3.90
2023-03-05T06:18:00.099Z,3.80
2023-03-05T06:20:46.562Z,3.70
2023-03-05T06:23:32.807Z,3.70
2023-03-05T06:26:21.545Z,3.50
2023-03-05T06:29:08.067Z,3.60
2023-03-05T06:31:54.363Z,3.60
2023-03-05T06:34:42.249Z,3.60
2023-03-05T06:37:28.969Z,3.40
2023-03-05T06:40:16.193Z,3.50
2023-03-05T06:43:02.765Z,3.40
2023-03-05T06:45:49.294Z,3.40
2023-03-05T06:48:35.931Z,3.50
2023-03-05T06:51:25.815Z,3.50
2023-03-05T06:54:13.772Z,3.50
2023-03-05T06:57:00.658Z,3.40
2023-03-05T06:59:47.119Z,3.50
2023-03-05T07:02:33.662Z,3.60
2023-03-05T07:05:20.377Z,3.60
2023-03-05T07:08:08.561Z,3.60
2023-03-05T07:10:55.058Z,3.60
2023-03-05T07:13:41.741Z,3.60
2023-03-05T07:16:30.526Z,3.60
2023-03-05T07:19:17.323Z,3.60
2023-03-05T07:22:03.975Z,3.70
2023-03-05T07:24:51.855Z,3.60
2023-03-05T07:27:38.909Z,3.60
2023-03-05T07:30:25.742Z,3.60
2023-03-05T07:33:12.171Z,3.70
2023-03-05T07:35:58.811Z,3.60
2023-03-05T07:38:45.792Z,3.70
2023-03-05T07:41:34.119Z,3.70
2023-03-05T07:44:20.410Z,3.80
2023-03-05T07:47:07.288Z,3.80
2023-03-05T07:49:53.840Z,3.90
2023-03-05T07:52:40.199Z,3.90
2023-03-05T07:55:26.719Z,3.90
2023-03-05T07:58:15.513Z,3.80
2023-03-05T08:01:02.165Z,3.90
2023-03-05T08:03:48.649Z,4.10
2023-03-05T08:06:35.624Z,4.00
2023-03-05T08:09:22.034Z,4.00
2023-03-05T08:12:09.958Z,4.00
2023-03-05T08:14:57.853Z,4.00
2023-03-05T08:17:44.545Z,4.10
2023-03-05T08:20:30.956Z,4.20
2023-03-05T08:23:17.445Z,4.20
2023-03-05T08:26:13.272Z,4.40
2023-03-05T08:28:59.947Z,4.50
2023-03-05T08:31:48.480Z,4.50
2023-03-05T08:34:34.909Z,4.50
2023-03-05T08:37:21.189Z,4.50
2023-03-05T08:40:08.771Z,4.60
2023-03-05T08:42:55.346Z,4.50
2023-03-05T08:45:41.967Z,4.60
2023-03-05T08:48:30.275Z,4.60
2023-03-05T08:51:19.534Z,4.60
2023-03-05T08:54:07.513Z,4.70
2023-03-05T08:56:54.038Z,4.50
2023-03-05T08:59:40.431Z,4.70
2023-03-05T09:02:26.794Z,4.80
2023-03-05T09:05:14.910Z,4.80
2023-03-05T09:08:01.592Z,5.00
2023-03-05T09:10:48.296Z,5.10
2023-03-05T09:13:35.038Z,5.00
2023-03-05T09:16:23.088Z,4.90
2023-03-05T09:19:10.721Z,5.00
2023-03-05T09:21:58.563Z,4.90
2023-03-05T09:24:45.044Z,5.00
2023-03-05T09:27:34.601Z,5.20
2023-03-05T09:30:22.301Z,5.40
2023-03-05T09:33:09.147Z,5.40
2023-03-05T09:35:55.484Z,5.50
2023-03-05T09:38:43.746Z,5.60
2023-03-05T09:41:38.881Z,5.60
2023-03-05T09:44:36.882Z,5.40
2023-03-05T09:47:37.735Z,5.30
2023-03-05T09:50:35.363Z,5.60
2023-03-05T09:53:37.668Z,5.70
2023-03-05T09:56:30.407Z,5.60
2023-03-05T09:59:31.393Z,5.50
2023-03-05T10:02:22.012Z,5.60
2023-03-05T10:05:16.842Z,6.00
2023-03-05T10:08:06.280Z,5.90
2023-03-05T10:10:54.494Z,6.10
2023-03-05T10:13:46.327Z,6.30
2023-03-05T10:16:53.962Z,6.20
2023-03-05T10:20:08.686Z,6.10
2023-03-05T10:23:12.045Z,6.30
2023-03-05T10:26:25.843Z,6.20
2023-03-05T10:29:42.945Z,6.40
2023-03-05T10:32:38.593Z,6.00
2023-03-05T10:35:41.011Z,6.10
2023-03-05T10:38:48.142Z,6.10
2023-03-05T10:41:41.397Z,6.30
2023-03-05T10:44:37.269Z,6.30
2023-03-05T10:47:26.846Z,6.50
2023-03-05T10:50:18.683Z,6.60
2023-03-05T10:53:15.031Z,6.50
2023-03-05T10:56:03.875Z,6.40
2023-03-05T10:58:52.045Z,6.50
2023-03-05T11:01:39.979Z,6.60
2023-03-05T11:04:28.719Z,6.60
2023-03-05T11:07:37.775Z,6.70
2023-03-05T11:10:27.048Z,7.10
2023-03-05T11:13:26.006Z,6.90
2023-03-05T11:16:20.844Z,6.80
2023-03-05T11:19:29.699Z,7.10
2023-03-05T11:22:19.129Z,6.60
2023-03-05T11:25:18.968Z,6.70
2023-03-05T11:28:05.561Z,6.90
2023-03-05T11:31:01.757Z,6.90
2023-03-05T11:33:58.788Z,6.80
2023-03-05T11:37:03.791Z,6.60
2023-03-05T11:40:06.345Z,6.60
2023-03-05T11:42:57.657Z,6.70
2023-03-05T11:45:44.683Z,6.80
2023-03-05T11:48:37.194Z,7.10
2023-03-05T11:51:29.113Z,7.20
2023-03-05T11:54:22.375Z,7.20
2023-03-05T11:57:14.372Z,7.20
2023-03-05T12:00:07.855Z,7.30
2023-03-05T12:02:57.784Z,7.30
2023-03-05T12:05:48.476Z,7.50
2023-03-05T12:08:39.505Z,7.30
2023-03-05T12:11:30.047Z,7.50
2023-03-05T12:14:22.633Z,7.40
2023-03-05T12:17:18.550Z,7.40
2023-03-05T12:20:12.480Z,7.30
2023-03-05T12:22:59.318Z,7.10
2023-03-05T12:25:48.266Z,7.00
2023-03-05T12:28:56.186Z,6.90
2023-03-05T12:31:45.510Z,6.60
2023-03-05T12:34:49.973Z,6.90
2023-03-05T12:38:26.212Z,6.80
2023-03-05T12:41:44.291Z,7.00
2023-03-05T12:44:32.229Z,7.10
2023-03-05T12:47:23.687Z,6.90
2023-03-05T12:50:49.179Z,7.10
2023-03-05T12:53:35.703Z,7.20
2023-03-05T12:56:27.049Z,7.30
2023-03-05T12:59:14.632Z,7.30
2023-03-05T13:02:05.811Z,7.20
2023-03-05T13:04:54.379Z,7.20
2023-03-05T13:07:41.090Z,7.10
2023-03-05T13:10:30.026Z,7.00
2023-03-05T13:13:17.000Z,6.80
2023-03-05T13:16:04.645Z,6.90
2023-03-05T13:18:54.216Z,6.90
2023-03-05T13:21:40.649Z,6.90
2023-03-05T13:24:27.191Z,6.80
2023-03-05T13:27:33.290Z,6.80
2023-03-05T13:30:25.465Z,7.10
2023-03-05T13:33:19.777Z,6.80
2023-03-05T13:36:08.412Z,6.90
2023-03-05T13:38:55.826Z,6.90
2023-03-05T13:41:42.574Z,6.80
2023-03-05T13:44:29.606Z,6.90
2023-03-05T13:47:19.281Z,7.00
2023-03-05T13:50:09.744Z,7.00
2023-03-05T13:52:59.389Z,7.10
2023-03-05T13:55:55.407Z,7.30
2023-03-05T13:58:52.326Z,7.30
2023-03-05T14:01:43.896Z,7.40
2023-03-05T14:04:33.471Z,7.40
2023-03-05T14:07:30.926Z,7.60
2023-03-05T14:10:34.764Z,7.70
2023-03-05T14:13:23.679Z,7.80
2023-03-05T14:16:11.988Z,7.70
2023-03-05T14:19:01.232Z,7.70
2023-03-05T14:21:49.767Z,7.50
2023-03-05T14:24:36.117Z,7.40
2023-03-05T14:27:24.030Z,7.60
2023-03-05T14:30:20.904Z,7.50
2023-03-05T14:33:07.362Z,7.40
2023-03-05T14:35:54.199Z,7.40
2023-03-05T14:38:42.102Z,7.00
2023-03-05T14:41:38.853Z,7.30
2023-03-05T14:44:26.807Z,7.30
2023-03-05T14:47:13.402Z,7.20
2023-03-05T14:50:00.020Z,7.30
2023-03-05T14:52:47.770Z,7.40
2023-03-05T14:55:38.240Z,7.30
2023-03-05T14:58:26.293Z,7.40
2023-03-05T15:01:14.945Z,7.60
2023-03-05T15:04:01.786Z,7.50
2023-03-05T15:06:50.995Z,7.70
2023-03-05T15:09:37.841Z,7.60
2023-03-05T15:12:25.232Z,7.70
2023-03-05T15:15:14.386Z,7.60
2023-03-05T15:18:02.352Z,7.40
2023-03-05T15:20:52.026Z,7.30
2023-03-05T15:23:38.681Z,7.10
2023-03-05T15:26:25.349Z,7.10
2023-03-05T15:29:11.954Z,7.10
2023-03-05T15:31:58.564Z,7.30
2023-03-05T15:34:46.626Z,7.00
2023-03-05T15:37:33.334Z,6.80
2023-03-05T15:40:21.068Z,7.00
2023-03-05T15:43:07.696Z,6.90
2023-03-05T15:45:54.029Z,7.10
2023-03-05T15:48:44.003Z,7.30
2023-03-05T15:51:32.167Z,7.00
2023-03-05T15:54:19.192Z,7.20
2023-03-05T15:57:10.520Z,7.30
2023-03-05T15:59:57.293Z,7.00
2023-03-05T16:02:45.036Z,7.10
2023-03-05T16:05:31.606Z,6.90
2023-03-05T16:08:19.480Z,6.80
2023-03-05T16:11:07.420Z,6.90
2023-03-05T16:13:53.806Z,6.80
2023-03-05T16:16:40.367Z,6.80
2023-03-05T16:19:27.530Z,6.80
2023-03-05T16:22:14.118Z,6.70
2023-03-05T16:25:02.012Z,6.60
2023-03-05T16:27:49.268Z,6.60
2023-03-05T16:30:36.118Z,6.60
2023-03-05T16:33:23.037Z,6.70
2023-03-05T16:36:22.944Z,6.70
2023-03-05T16:39:09.598Z,6.60
2023-03-05T16:41:57.799Z,6.70
2023-03-05T16:44:45.353Z,6.50
2023-03-05T16:47:32.016Z,6.30
2023-03-05T16:50:18.846Z,6.40
2023-03-05T16:53:05.314Z,6.40
2023-03-05T16:55:51.484Z,6.40
2023-03-05T16:58:41.479Z,6.40
2023-03-05T17:01:30.248Z,6.50
2023-03-05T17:04:16.807Z,6.20
2023-03-05T17:07:05.532Z,6.00
2023-03-05T17:09:52.987Z,6.00
2023-03-05T17:12:39.746Z,6.00
2023-03-05T17:15:27.872Z,5.70
2023-03-05T17:18:14.486Z,6.00
2023-03-05T17:21:01.811Z,6.00
2023-03-05T17:23:48.745Z,5.50
2023-03-05T17:26:36.565Z,5.60
2023-03-05T17:29:23.251Z,5.50
2023-03-05T17:32:11.447Z,5.50
2023-03-05T17:34:58.127Z,5.60
2023-03-05T17:37:44.481Z,5.80
2023-03-05T17:40:31.047Z,5.60
2023-03-05T17:43:18.216Z,5.70
2023-03-05T17:46:04.787Z,5.70
2023-03-05T17:48:52.772Z,5.70
2023-03-05T17:51:39.580Z,5.70
2023-03-05T17:54:26.141Z,5.80
2023-03-05T17:57:12.556Z,5.60
2023-03-05T17:59:59.239Z,5.60
2023-03-05T18:02:45.796Z,5.50
2023-03-05T18:05:34.077Z,5.60
2023-03-05T18:08:20.547Z,5.70
2023-03-05T18:11:06.937Z,5.70
2023-03-05T18:13:53.449Z,5.70
2023-03-05T18:16:39.992Z,5.70
2023-03-05T18:19:26.830Z,5.80
2023-03-05T18:22:14.493Z,5.60
2023-03-05T18:25:01.284Z,5.70
2023-03-05T18:27:48.090Z,5.70
2023-03-05T18:30:35.383Z,5.70
2023-03-05T18:33:24.627Z,5.70
2023-03-05T18:36:12.209Z,5.70
2023-03-05T18:39:00.339Z,5.60
2023-03-05T18:41:47.151Z,5.60
2023-03-05T18:44:33.824Z,5.70
2023-03-05T18:47:20.085Z,5.70
2023-03-05T18:50:07.741Z,5.60
2023-03-05T18:52:54.816Z,5.70
2023-03-05T18:55:43.309Z,5.60
2023-03-05T18:58:29.608Z,5.60
2023-03-05T19:01:17.524Z,5.50
2023-03-05T19:04:05.105Z,5.50
2023-03-05T19:06:51.385Z,5.60
2023-03-05T19:09:52.180Z,5.50
2023-03-05T19:12:46.198Z,5.60
2023-03-05T19:15:32.957Z,5.60
2023-03-05T19:18:20.691Z,5.60
2023-03-05T19:21:08.271Z,5.60
2023-03-05T19:23:54.638Z,5.60
2023-03-05T19:26:41.802Z,5.40
2023-03-05T19:29:32.890Z,5.50
2023-03-05T19:32:21.014Z,5.50
2023-03-05T19:35:08.242Z,5.50
2023-03-05T19:37:54.700Z,5.50
2023-03-05T19:40:41.613Z,5.40
2023-03-05T19:43:28.022Z,5.40
2023-03-05T19:46:15.929Z,5.50
2023-03-05T19:49:02.532Z,5.50
2023-03-05T19:51:49.279Z,5.40
2023-03-05T19:54:35.807Z,5.50
2023-03-05T19:57:22.038Z,5.50
2023-03-05T20:00:09.835Z,5.50
2023-03-05T20:02:58.707Z,5.40
2023-03-05T20:05:45.137Z,5.40
2023-03-05T20:08:31.447Z,5.40
2023-03-05T20:11:19.627Z,5.30
2023-03-05T20:14:06.096Z,5.20
2023-03-05T20:16:52.525Z,5.40
2023-03-05T20:19:40.411Z,5.40
2023-03-05T20:22:26.970Z,5.30
2023-03-05T20:25:16.408Z,5.30
2023-03-05T20:28:02.926Z,5.30
2023-03-05T20:30:54.657Z,5.20
2023-03-05T20:33:41.491Z,5.20
2023-03-05T20:36:29.637Z,5.30
2023-03-05T20:39:16.372Z,5.20
2023-03-05T20:42:02.851Z,5.20
2023-03-05T20:44:49.434Z,5.20
2023-03-05T20:47:40.968Z,5.10
2023-03-05T20:50:28.081Z,5.10
2023-03-05T20:53:16.481Z,5.20
2023-03-05T20:56:02.997Z,5.30
2023-03-05T20:58:49.355Z,5.20
2023-03-05T21:01:38.460Z,5.10
2023-03-05T21:04:25.026Z,5.20
2023-03-05T21:07:11.598Z,5.20
2023-03-05T21:09:59.162Z,5.20
2023-03-05T21:12:46.588Z,5.10
2023-03-05T21:15:33.607Z,5.10
2023-03-05T21:18:20.113Z,5.10
2023-03-05T21:21:07.701Z,5.20
2023-03-05T21:23:55.433Z,5.20
2023-03-05T21:26:43.347Z,5.10
2023-03-05T21:29:29.634Z,5.00
2023-03-05T21:32:16.020Z,5.00
2023-03-05T21:35:02.767Z,5.00
2023-03-05T21:37:49.826Z,5.10
2023-03-05T21:40:37.987Z,5.00
2023-03-05T21:43:27.219Z,4.90
2023-03-05T21:46:15.034Z,4.90
2023-03-05T21:49:01.838Z,5.00
2023-03-05T21:52:01.068Z,5.10
2023-03-05T21:54:47.324Z,5.10
2023-03-05T21:57:33.621Z,5.10
2023-03-05T22:00:23.939Z,5.00
2023-03-05T22:03:10.339Z,5.10
2023-03-05T22:05:57.029Z,5.10
2023-03-05T22:08:43.736Z,5.00
2023-03-05T22:11:30.078Z,5.10
2023-03-05T22:14:17.930Z,5.10
2023-03-05T22:17:05.824Z,5.00
2023-03-05T22:19:52.409Z,5.00
2023-03-05T22:22:38.762Z,5.00
2023-03-05T22:25:25.307Z,5.00
2023-03-05T22:28:12.728Z,4.90
2023-03-05T22:31:00.026Z,5.00
2023-03-05T22:33:48.351Z,5.00
2023-03-05T22:36:34.831Z,5.00
2023-03-05T22:39:21.230Z,4.90
2023-03-05T22:42:07.956Z,4.90
2023-03-05T22:44:57.989Z,4.90
2023-03-05T22:47:46.979Z,4.90
2023-03-05T22:50:35.047Z,4.90
2023-03-05T22:53:21.731Z,4.90
2023-03-05T22:56:10.048Z,4.90
2023-03-05T22:58:56.845Z,5.00
2023-03-05T23:01:43.325Z,4.90
2023-03-05T23:04:40.163Z,4.90
2023-03-05T23:07:30.982Z,5.00
2023-03-05T23:10:20.206Z,4.90
2023-03-05T23:13:06.629Z,5.00
2023-03-05T23:15:53.168Z,5.00
2023-03-05T23:18:39.797Z,4.90
2023-03-05T23:21:26.411Z,5.00
2023-03-05T23:24:14.169Z,5.00
2023-03-05T23:27:01.218Z,4.90
2023-03-05T23:29:58.875Z,5.00
2023-03-05T23:32:47.163Z,5.00
2023-03-05T23:35:36.104Z,5.00
2023-03-05T23:38:23.773Z,4.90
2023-03-05T23:41:11.914Z,4.90
2023-03-05T23:43:58.304Z,4.90
2023-03-05T23:46:44.751Z,4.80
2023-03-05T23:49:31.252Z,4.80
2023-03-05T23:52:17.857Z,4.90
2023-03-05T23:55:04.526Z,4.80
2023-03-05T23:57:52.692Z,4.80
